PATC/TNC METAR and TAF weather

Enter ICAO airport designator
Station Type Date Time Source
PATC METAR 2020/09/23 03:13 UTC NOAA

PATC 230313Z AUTO 03019KT 6SM -SHRA BKN010 04/03 A2983 RMK AO2 SLP105


Station Type Date Time Source
PATC Decoded METAR 2020/09/23 03:13 UTC NOAA

Tin City Airways Facilities Sector, AK, United States (PATC) 65-34N 167-55W
Sep 22, 2020 - 11:13 PM EDT / 2020.09.23 0313 UTC
Wind: from the NNE (030 degrees) at 22 MPH (19 KT):0
Visibility: 6 mile(s):0
Sky conditions: mostly cloudy
Weather: light rain showers
Temperature: 39 F (4 C)
Dew Point: 37 F (3 C)
Relative Humidity: 93%
Pressure (altimeter): 29.83 in. Hg (1010 hPa)
ob: PATC 230313Z AUTO 03019KT 6SM -SHRA BKN010 04/03 A2983 RMK AO2 SLP105
cycle: 3

Station Type Date Time Source
PATC TAF 2016/08/27 04:12 UTC NOAA

TAF PATC 270400Z 2704/2810 18012G18KT 0400 FG OVC002 QNH3015INS TX10/2718Z TN06/2710Z

Example: see airport list